sensor_id;sensor_type;location;lat;lon;timestamp;P1;durP1;ratioP1;P2;durP2;ratioP2
10715;SDS011;5409;42.620;23.316;2024-02-23T00:02:08;5.07;;;3.55;;
10715;SDS011;5409;42.620;23.316;2024-02-23T00:04:34;10.57;;;4.50;;
10715;SDS011;5409;42.620;23.316;2024-02-23T00:06:59;8.10;;;3.92;;
10715;SDS011;5409;42.620;23.316;2024-02-23T00:09:24;5.50;;;3.60;;
10715;SDS011;5409;42.620;23.316;2024-02-23T00:11:50;6.35;;;4.40;;
10715;SDS011;5409;42.620;23.316;2024-02-23T00:14:15;22.67;;;12.32;;
10715;SDS011;5409;42.620;23.316;2024-02-23T00:16:45;10.40;;;6.55;;
10715;SDS011;5409;42.620;23.316;2024-02-23T00:19:10;12.00;;;6.50;;
10715;SDS011;5409;42.620;23.316;2024-02-23T00:21:36;13.95;;;6.20;;
10715;SDS011;5409;42.620;23.316;2024-02-23T00:24:02;7.40;;;4.57;;
10715;SDS011;5409;42.620;23.316;2024-02-23T00:26:28;8.73;;;4.82;;
10715;SDS011;5409;42.620;23.316;2024-02-23T00:28:54;6.35;;;3.85;;
10715;SDS011;5409;42.620;23.316;2024-02-23T00:31:20;5.88;;;4.45;;
10715;SDS011;5409;42.620;23.316;2024-02-23T00:33:45;9.25;;;5.82;;
10715;SDS011;5409;42.620;23.316;2024-02-23T00:36:11;6.70;;;4.57;;
10715;SDS011;5409;42.620;23.316;2024-02-23T00:38:36;4.88;;;3.70;;
10715;SDS011;5409;42.620;23.316;2024-02-23T00:41:02;7.32;;;4.22;;
10715;SDS011;5409;42.620;23.316;2024-02-23T00:43:27;7.10;;;4.20;;
10715;SDS011;5409;42.620;23.316;2024-02-23T00:45:54;5.18;;;3.40;;
10715;SDS011;5409;42.620;23.316;2024-02-23T00:48:20;7.32;;;4.80;;
10715;SDS011;5409;42.620;23.316;2024-02-23T00:50:45;5.72;;;4.50;;
10715;SDS011;5409;42.620;23.316;2024-02-23T00:53:11;5.97;;;4.20;;
10715;SDS011;5409;42.620;23.316;2024-02-23T00:55:37;5.65;;;4.15;;
10715;SDS011;5409;42.620;23.316;2024-02-23T00:58:02;5.47;;;3.47;;
10715;SDS011;5409;42.620;23.316;2024-02-23T01:00:28;7.43;;;3.95;;
10715;SDS011;5409;42.620;23.316;2024-02-23T01:02:54;7.80;;;4.90;;
10715;SDS011;5409;42.620;23.316;2024-02-23T01:05:19;6.30;;;4.35;;
10715;SDS011;5409;42.620;23.316;2024-02-23T01:07:44;6.93;;;3.38;;
10715;SDS011;5409;42.620;23.316;2024-02-23T01:10:10;4.88;;;3.92;;
10715;SDS011;5409;42.620;23.316;2024-02-23T01:12:35;5.70;;;3.95;;
10715;SDS011;5409;42.620;23.316;2024-02-23T01:15:01;5.90;;;3.92;;
10715;SDS011;5409;42.620;23.316;2024-02-23T01:17:26;4.78;;;3.85;;
10715;SDS011;5409;42.620;23.316;2024-02-23T01:19:52;6.18;;;3.63;;
10715;SDS011;5409;42.620;23.316;2024-02-23T01:22:17;9.85;;;4.53;;
10715;SDS011;5409;42.620;23.316;2024-02-23T01:24:42;4.55;;;3.55;;
10715;SDS011;5409;42.620;23.316;2024-02-23T01:27:08;5.88;;;4.03;;
10715;SDS011;5409;42.620;23.316;2024-02-23T01:29:33;7.05;;;4.13;;
10715;SDS011;5409;42.620;23.316;2024-02-23T01:31:59;6.10;;;3.65;;
10715;SDS011;5409;42.620;23.316;2024-02-23T01:34:25;6.07;;;4.15;;
10715;SDS011;5409;42.620;23.316;2024-02-23T01:36:50;6.97;;;4.20;;
10715;SDS011;5409;42.620;23.316;2024-02-23T01:39:15;9.02;;;5.45;;
10715;SDS011;5409;42.620;23.316;2024-02-23T01:41:41;5.50;;;3.88;;
10715;SDS011;5409;42.620;23.316;2024-02-23T01:44:08;7.03;;;4.22;;
10715;SDS011;5409;42.620;23.316;2024-02-23T01:46:34;5.47;;;3.67;;
10715;SDS011;5409;42.620;23.316;2024-02-23T01:49:00;7.15;;;5.35;;
10715;SDS011;5409;42.620;23.316;2024-02-23T01:51:26;6.35;;;3.78;;
10715;SDS011;5409;42.620;23.316;2024-02-23T01:53:51;5.55;;;3.28;;
10715;SDS011;5409;42.620;23.316;2024-02-23T01:56:17;6.43;;;4.18;;
10715;SDS011;5409;42.620;23.316;2024-02-23T01:58:44;5.43;;;4.20;;
10715;SDS011;5409;42.620;23.316;2024-02-23T02:01:11;5.78;;;3.67;;
10715;SDS011;5409;42.620;23.316;2024-02-23T02:03:37;5.70;;;3.53;;
10715;SDS011;5409;42.620;23.316;2024-02-23T02:06:04;4.57;;;3.75;;
10715;SDS011;5409;42.620;23.316;2024-02-23T02:08:31;5.72;;;4.07;;
10715;SDS011;5409;42.620;23.316;2024-02-23T02:10:58;9.57;;;4.05;;
10715;SDS011;5409;42.620;23.316;2024-02-23T02:13:23;4.88;;;3.40;;
10715;SDS011;5409;42.620;23.316;2024-02-23T02:15:49;8.30;;;3.70;;
10715;SDS011;5409;42.620;23.316;2024-02-23T02:18:14;4.63;;;3.17;;
10715;SDS011;5409;42.620;23.316;2024-02-23T02:20:40;4.28;;;3.55;;
10715;SDS011;5409;42.620;23.316;2024-02-23T02:23:15;4.93;;;3.65;;
10715;SDS011;5409;42.620;23.316;2024-02-23T02:25:41;5.78;;;3.38;;
10715;SDS011;5409;42.620;23.316;2024-02-23T02:28:06;7.30;;;3.15;;
10715;SDS011;5409;42.620;23.316;2024-02-23T02:30:32;3.45;;;3.03;;
10715;SDS011;5409;42.620;23.316;2024-02-23T02:32:58;4.97;;;4.07;;
10715;SDS011;5409;42.620;23.316;2024-02-23T02:35:23;7.53;;;4.18;;
10715;SDS011;5409;42.620;23.316;2024-02-23T02:37:48;5.47;;;3.33;;
10715;SDS011;5409;42.620;23.316;2024-02-23T02:40:14;9.35;;;3.95;;
10715;SDS011;5409;42.620;23.316;2024-02-23T02:42:39;5.45;;;4.03;;
10715;SDS011;5409;42.620;23.316;2024-02-23T02:45:05;8.05;;;3.70;;
10715;SDS011;5409;42.620;23.316;2024-02-23T02:47:31;7.75;;;4.00;;
10715;SDS011;5409;42.620;23.316;2024-02-23T02:49:56;4.50;;;3.40;;
10715;SDS011;5409;42.620;23.316;2024-02-23T02:52:22;4.65;;;3.28;;
10715;SDS011;5409;42.620;23.316;2024-02-23T02:54:48;7.00;;;4.47;;
10715;SDS011;5409;42.620;23.316;2024-02-23T02:57:14;4.60;;;4.00;;
10715;SDS011;5409;42.620;23.316;2024-02-23T02:59:39;5.97;;;3.65;;
10715;SDS011;5409;42.620;23.316;2024-02-23T03:02:05;6.28;;;4.05;;
10715;SDS011;5409;42.620;23.316;2024-02-23T03:04:30;8.93;;;3.63;;
10715;SDS011;5409;42.620;23.316;2024-02-23T03:06:56;8.43;;;5.10;;
10715;SDS011;5409;42.620;23.316;2024-02-23T03:09:21;6.53;;;4.72;;
10715;SDS011;5409;42.620;23.316;2024-02-23T03:11:46;6.57;;;5.40;;
10715;SDS011;5409;42.620;23.316;2024-02-23T03:14:12;5.93;;;4.05;;
10715;SDS011;5409;42.620;23.316;2024-02-23T03:16:37;7.05;;;4.28;;
10715;SDS011;5409;42.620;23.316;2024-02-23T03:19:03;6.97;;;4.05;;
10715;SDS011;5409;42.620;23.316;2024-02-23T03:21:29;7.90;;;4.15;;
10715;SDS011;5409;42.620;23.316;2024-02-23T03:23:55;5.97;;;4.38;;
10715;SDS011;5409;42.620;23.316;2024-02-23T03:26:20;8.90;;;4.68;;
10715;SDS011;5409;42.620;23.316;2024-02-23T03:28:45;7.15;;;4.32;;
10715;SDS011;5409;42.620;23.316;2024-02-23T03:31:11;9.43;;;5.15;;
10715;SDS011;5409;42.620;23.316;2024-02-23T03:33:36;5.15;;;4.05;;
10715;SDS011;5409;42.620;23.316;2024-02-23T03:36:02;7.10;;;4.88;;
10715;SDS011;5409;42.620;23.316;2024-02-23T03:38:28;5.82;;;4.13;;
10715;SDS011;5409;42.620;23.316;2024-02-23T03:40:55;5.13;;;3.50;;
10715;SDS011;5409;42.620;23.316;2024-02-23T03:43:20;6.57;;;4.07;;
10715;SDS011;5409;42.620;23.316;2024-02-23T03:45:46;6.53;;;3.90;;
10715;SDS011;5409;42.620;23.316;2024-02-23T03:48:11;8.02;;;4.80;;
10715;SDS011;5409;42.620;23.316;2024-02-23T03:50:36;6.13;;;4.10;;
10715;SDS011;5409;42.620;23.316;2024-02-23T03:53:02;5.57;;;4.13;;
10715;SDS011;5409;42.620;23.316;2024-02-23T03:55:28;10.48;;;5.20;;
10715;SDS011;5409;42.620;23.316;2024-02-23T03:57:54;6.60;;;4.15;;
10715;SDS011;5409;42.620;23.316;2024-02-23T04:00:19;5.63;;;4.20;;
10715;SDS011;5409;42.620;23.316;2024-02-23T04:02:47;8.93;;;3.88;;
10715;SDS011;5409;42.620;23.316;2024-02-23T04:05:12;8.50;;;4.85;;
10715;SDS011;5409;42.620;23.316;2024-02-23T04:07:37;6.60;;;4.28;;
10715;SDS011;5409;42.620;23.316;2024-02-23T04:10:03;8.52;;;5.28;;
10715;SDS011;5409;42.620;23.316;2024-02-23T04:12:29;4.68;;;3.92;;
10715;SDS011;5409;42.620;23.316;2024-02-23T04:14:56;4.90;;;3.97;;
10715;SDS011;5409;42.620;23.316;2024-02-23T04:17:21;7.45;;;4.50;;
10715;SDS011;5409;42.620;23.316;2024-02-23T04:19:47;9.57;;;4.63;;
10715;SDS011;5409;42.620;23.316;2024-02-23T04:22:12;4.60;;;3.55;;
10715;SDS011;5409;42.620;23.316;2024-02-23T04:24:38;6.75;;;4.95;;
10715;SDS011;5409;42.620;23.316;2024-02-23T04:27:04;7.93;;;4.68;;
10715;SDS011;5409;42.620;23.316;2024-02-23T04:29:30;6.95;;;4.15;;
10715;SDS011;5409;42.620;23.316;2024-02-23T04:31:57;6.38;;;4.28;;
10715;SDS011;5409;42.620;23.316;2024-02-23T04:34:22;5.93;;;4.10;;
10715;SDS011;5409;42.620;23.316;2024-02-23T04:36:48;7.22;;;4.18;;
10715;SDS011;5409;42.620;23.316;2024-02-23T04:39:14;9.32;;;5.28;;
10715;SDS011;5409;42.620;23.316;2024-02-23T04:41:39;6.55;;;3.95;;
10715;SDS011;5409;42.620;23.316;2024-02-23T04:44:04;7.93;;;5.40;;
10715;SDS011;5409;42.620;23.316;2024-02-23T04:46:33;7.30;;;4.60;;
10715;SDS011;5409;42.620;23.316;2024-02-23T04:48:59;6.70;;;4.88;;
10715;SDS011;5409;42.620;23.316;2024-02-23T04:51:25;8.63;;;4.60;;
10715;SDS011;5409;42.620;23.316;2024-02-23T04:53:50;7.15;;;4.47;;
10715;SDS011;5409;42.620;23.316;2024-02-23T04:56:15;6.60;;;4.43;;
10715;SDS011;5409;42.620;23.316;2024-02-23T04:58:41;8.82;;;4.38;;
10715;SDS011;5409;42.620;23.316;2024-02-23T05:01:08;5.20;;;3.60;;
10715;SDS011;5409;42.620;23.316;2024-02-23T05:03:33;7.78;;;4.88;;
10715;SDS011;5409;42.620;23.316;2024-02-23T05:05:59;6.38;;;4.55;;
10715;SDS011;5409;42.620;23.316;2024-02-23T05:08:25;7.53;;;4.65;;
10715;SDS011;5409;42.620;23.316;2024-02-23T05:10:52;6.88;;;4.20;;
10715;SDS011;5409;42.620;23.316;2024-02-23T05:13:17;6.93;;;4.25;;
10715;SDS011;5409;42.620;23.316;2024-02-23T05:15:43;5.28;;;3.85;;
10715;SDS011;5409;42.620;23.316;2024-02-23T05:18:08;9.00;;;4.45;;
10715;SDS011;5409;42.620;23.316;2024-02-23T05:20:34;5.85;;;3.97;;
10715;SDS011;5409;42.620;23.316;2024-02-23T05:22:59;7.80;;;4.68;;
10715;SDS011;5409;42.620;23.316;2024-02-23T05:25:24;5.63;;;3.78;;
10715;SDS011;5409;42.620;23.316;2024-02-23T05:27:53;7.18;;;4.22;;
10715;SDS011;5409;42.620;23.316;2024-02-23T05:30:18;8.57;;;4.32;;
10715;SDS011;5409;42.620;23.316;2024-02-23T05:32:43;6.68;;;4.15;;
10715;SDS011;5409;42.620;23.316;2024-02-23T05:35:09;3.90;;;2.88;;
10715;SDS011;5409;42.620;23.316;2024-02-23T05:37:35;5.85;;;3.80;;
10715;SDS011;5409;42.620;23.316;2024-02-23T05:40:00;5.28;;;3.80;;
10715;SDS011;5409;42.620;23.316;2024-02-23T05:42:29;6.60;;;4.35;;
10715;SDS011;5409;42.620;23.316;2024-02-23T05:44:54;5.93;;;3.08;;
10715;SDS011;5409;42.620;23.316;2024-02-23T05:47:20;5.90;;;3.97;;
10715;SDS011;5409;42.620;23.316;2024-02-23T05:49:46;7.45;;;3.72;;
10715;SDS011;5409;42.620;23.316;2024-02-23T05:52:12;10.15;;;4.95;;
10715;SDS011;5409;42.620;23.316;2024-02-23T05:54:37;6.40;;;4.28;;
10715;SDS011;5409;42.620;23.316;2024-02-23T05:57:02;4.50;;;3.58;;
10715;SDS011;5409;42.620;23.316;2024-02-23T05:59:28;5.00;;;3.53;;
10715;SDS011;5409;42.620;23.316;2024-02-23T06:01:53;7.97;;;5.78;;
10715;SDS011;5409;42.620;23.316;2024-02-23T06:04:22;6.97;;;4.15;;
10715;SDS011;5409;42.620;23.316;2024-02-23T06:06:48;5.65;;;3.58;;
10715;SDS011;5409;42.620;23.316;2024-02-23T06:09:13;6.65;;;4.22;;
10715;SDS011;5409;42.620;23.316;2024-02-23T06:11:39;7.63;;;4.57;;
10715;SDS011;5409;42.620;23.316;2024-02-23T06:14:04;5.53;;;3.58;;
10715;SDS011;5409;42.620;23.316;2024-02-23T06:16:29;6.00;;;3.85;;
10715;SDS011;5409;42.620;23.316;2024-02-23T06:18:55;9.90;;;4.78;;
10715;SDS011;5409;42.620;23.316;2024-02-23T06:21:20;5.68;;;4.07;;
10715;SDS011;5409;42.620;23.316;2024-02-23T06:23:45;9.90;;;4.40;;
10715;SDS011;5409;42.620;23.316;2024-02-23T06:26:11;7.00;;;5.25;;
10715;SDS011;5409;42.620;23.316;2024-02-23T06:28:37;7.53;;;3.72;;
10715;SDS011;5409;42.620;23.316;2024-02-23T06:31:07;9.73;;;5.53;;
10715;SDS011;5409;42.620;23.316;2024-02-23T06:33:33;8.52;;;5.15;;
10715;SDS011;5409;42.620;23.316;2024-02-23T06:35:58;7.70;;;5.50;;
10715;SDS011;5409;42.620;23.316;2024-02-23T06:38:24;8.27;;;4.35;;
10715;SDS011;5409;42.620;23.316;2024-02-23T06:40:49;9.93;;;5.43;;
10715;SDS011;5409;42.620;23.316;2024-02-23T06:43:15;8.73;;;6.25;;
10715;SDS011;5409;42.620;23.316;2024-02-23T06:45:40;8.85;;;5.30;;
10715;SDS011;5409;42.620;23.316;2024-02-23T06:48:06;9.57;;;4.85;;
10715;SDS011;5409;42.620;23.316;2024-02-23T06:50:31;9.00;;;5.03;;
10715;SDS011;5409;42.620;23.316;2024-02-23T06:52:57;7.80;;;4.97;;
10715;SDS011;5409;42.620;23.316;2024-02-23T06:55:22;8.55;;;5.10;;
10715;SDS011;5409;42.620;23.316;2024-02-23T06:57:47;7.72;;;5.10;;
10715;SDS011;5409;42.620;23.316;2024-02-23T07:00:13;10.25;;;5.20;;
10715;SDS011;5409;42.620;23.316;2024-02-23T07:02:39;8.93;;;5.15;;
10715;SDS011;5409;42.620;23.316;2024-02-23T07:05:04;9.68;;;5.35;;
10715;SDS011;5409;42.620;23.316;2024-02-23T07:07:30;5.47;;;4.65;;
10715;SDS011;5409;42.620;23.316;2024-02-23T07:09:58;7.30;;;4.68;;
10715;SDS011;5409;42.620;23.316;2024-02-23T07:12:23;10.05;;;4.75;;
10715;SDS011;5409;42.620;23.316;2024-02-23T07:14:49;9.70;;;5.28;;
10715;SDS011;5409;42.620;23.316;2024-02-23T07:17:18;9.80;;;6.18;;
10715;SDS011;5409;42.620;23.316;2024-02-23T07:19:44;10.82;;;5.25;;
10715;SDS011;5409;42.620;23.316;2024-02-23T07:22:10;7.50;;;4.60;;
10715;SDS011;5409;42.620;23.316;2024-02-23T07:24:39;8.32;;;5.88;;
10715;SDS011;5409;42.620;23.316;2024-02-23T07:27:05;7.82;;;5.05;;
10715;SDS011;5409;42.620;23.316;2024-02-23T07:29:31;14.65;;;5.88;;
10715;SDS011;5409;42.620;23.316;2024-02-23T07:31:56;10.77;;;5.22;;
10715;SDS011;5409;42.620;23.316;2024-02-23T07:34:21;10.23;;;5.53;;
10715;SDS011;5409;42.620;23.316;2024-02-23T07:36:47;10.43;;;5.10;;
10715;SDS011;5409;42.620;23.316;2024-02-23T07:39:16;8.20;;;5.93;;
10715;SDS011;5409;42.620;23.316;2024-02-23T07:41:41;9.80;;;5.85;;
10715;SDS011;5409;42.620;23.316;2024-02-23T07:44:07;8.70;;;5.78;;
10715;SDS011;5409;42.620;23.316;2024-02-23T07:46:32;10.13;;;5.53;;
10715;SDS011;5409;42.620;23.316;2024-02-23T07:48:57;11.63;;;7.80;;
10715;SDS011;5409;42.620;23.316;2024-02-23T07:51:23;9.23;;;5.97;;
10715;SDS011;5409;42.620;23.316;2024-02-23T07:53:48;9.85;;;6.45;;
10715;SDS011;5409;42.620;23.316;2024-02-23T07:56:14;10.52;;;6.10;;
10715;SDS011;5409;42.620;23.316;2024-02-23T07:58:39;10.13;;;6.70;;
10715;SDS011;5409;42.620;23.316;2024-02-23T08:01:04;8.85;;;5.95;;
10715;SDS011;5409;42.620;23.316;2024-02-23T08:03:30;14.75;;;6.57;;
10715;SDS011;5409;42.620;23.316;2024-02-23T08:05:55;10.07;;;6.60;;
10715;SDS011;5409;42.620;23.316;2024-02-23T08:08:21;9.98;;;6.28;;
10715;SDS011;5409;42.620;23.316;2024-02-23T08:10:48;10.30;;;7.03;;
10715;SDS011;5409;42.620;23.316;2024-02-23T08:13:14;14.10;;;7.30;;
10715;SDS011;5409;42.620;23.316;2024-02-23T08:15:40;14.32;;;7.03;;
10715;SDS011;5409;42.620;23.316;2024-02-23T08:18:05;10.05;;;6.32;;
10715;SDS011;5409;42.620;23.316;2024-02-23T08:20:31;12.95;;;6.50;;
10715;SDS011;5409;42.620;23.316;2024-02-23T08:22:56;12.55;;;6.30;;
10715;SDS011;5409;42.620;23.316;2024-02-23T08:25:22;11.20;;;5.97;;
10715;SDS011;5409;42.620;23.316;2024-02-23T08:27:47;13.40;;;9.00;;
10715;SDS011;5409;42.620;23.316;2024-02-23T08:30:13;12.07;;;6.65;;
10715;SDS011;5409;42.620;23.316;2024-02-23T08:32:39;10.02;;;6.57;;
10715;SDS011;5409;42.620;23.316;2024-02-23T08:35:05;11.40;;;7.05;;
10715;SDS011;5409;42.620;23.316;2024-02-23T08:37:32;12.90;;;6.80;;
10715;SDS011;5409;42.620;23.316;2024-02-23T08:39:57;11.43;;;7.65;;
10715;SDS011;5409;42.620;23.316;2024-02-23T08:42:22;13.77;;;7.68;;
10715;SDS011;5409;42.620;23.316;2024-02-23T08:44:48;13.38;;;6.82;;
10715;SDS011;5409;42.620;23.316;2024-02-23T08:47:13;13.02;;;7.00;;
10715;SDS011;5409;42.620;23.316;2024-02-23T08:49:39;11.43;;;7.10;;
10715;SDS011;5409;42.620;23.316;2024-02-23T08:52:04;11.35;;;7.13;;
10715;SDS011;5409;42.620;23.316;2024-02-23T08:54:30;12.43;;;7.28;;
10715;SDS011;5409;42.620;23.316;2024-02-23T08:56:55;11.80;;;6.75;;
10715;SDS011;5409;42.620;23.316;2024-02-23T08:59:20;9.30;;;6.20;;
10715;SDS011;5409;42.620;23.316;2024-02-23T09:01:46;8.98;;;6.32;;
10715;SDS011;5409;42.620;23.316;2024-02-23T09:04:12;10.32;;;6.35;;
10715;SDS011;5409;42.620;23.316;2024-02-23T09:06:38;10.07;;;5.72;;
10715;SDS011;5409;42.620;23.316;2024-02-23T09:09:03;9.43;;;5.93;;
10715;SDS011;5409;42.620;23.316;2024-02-23T09:11:28;10.15;;;5.95;;
10715;SDS011;5409;42.620;23.316;2024-02-23T09:13:54;8.25;;;5.30;;
10715;SDS011;5409;42.620;23.316;2024-02-23T09:16:19;8.10;;;5.30;;
10715;SDS011;5409;42.620;23.316;2024-02-23T09:18:45;7.70;;;5.00;;
10715;SDS011;5409;42.620;23.316;2024-02-23T09:21:11;7.70;;;5.07;;
10715;SDS011;5409;42.620;23.316;2024-02-23T09:23:36;8.52;;;6.60;;
10715;SDS011;5409;42.620;23.316;2024-02-23T09:26:08;7.68;;;5.28;;
10715;SDS011;5409;42.620;23.316;2024-02-23T09:28:33;7.22;;;4.72;;
10715;SDS011;5409;42.620;23.316;2024-02-23T09:30:59;9.05;;;4.60;;
10715;SDS011;5409;42.620;23.316;2024-02-23T09:33:24;7.03;;;4.03;;
10715;SDS011;5409;42.620;23.316;2024-02-23T09:35:49;7.20;;;4.60;;
10715;SDS011;5409;42.620;23.316;2024-02-23T09:38:15;7.57;;;4.40;;
10715;SDS011;5409;42.620;23.316;2024-02-23T09:40:40;7.90;;;4.28;;
10715;SDS011;5409;42.620;23.316;2024-02-23T09:43:05;7.38;;;4.53;;
10715;SDS011;5409;42.620;23.316;2024-02-23T09:45:33;5.72;;;3.92;;
10715;SDS011;5409;42.620;23.316;2024-02-23T09:47:58;5.78;;;4.10;;
10715;SDS011;5409;42.620;23.316;2024-02-23T09:50:25;6.38;;;3.38;;
10715;SDS011;5409;42.620;23.316;2024-02-23T09:52:53;5.45;;;2.70;;
10715;SDS011;5409;42.620;23.316;2024-02-23T09:55:23;4.60;;;3.28;;
10715;SDS011;5409;42.620;23.316;2024-02-23T09:57:48;3.30;;;2.72;;
10715;SDS011;5409;42.620;23.316;2024-02-23T10:00:19;5.43;;;3.03;;
10715;SDS011;5409;42.620;23.316;2024-02-23T10:02:45;4.57;;;2.75;;
10715;SDS011;5409;42.620;23.316;2024-02-23T10:05:12;5.85;;;2.50;;
10715;SDS011;5409;42.620;23.316;2024-02-23T10:07:39;3.67;;;2.22;;
10715;SDS011;5409;42.620;23.316;2024-02-23T10:10:08;3.35;;;1.98;;
10715;SDS011;5409;42.620;23.316;2024-02-23T10:12:36;4.15;;;2.03;;
10715;SDS011;5409;42.620;23.316;2024-02-23T10:15:02;2.65;;;1.95;;
10715;SDS011;5409;42.620;23.316;2024-02-23T10:17:29;1.90;;;1.80;;
10715;SDS011;5409;42.620;23.316;2024-02-23T10:19:55;1.92;;;1.83;;
10715;SDS011;5409;42.620;23.316;2024-02-23T10:22:22;1.83;;;1.73;;
10715;SDS011;5409;42.620;23.316;2024-02-23T10:24:50;1.90;;;1.52;;
10715;SDS011;5409;42.620;23.316;2024-02-23T10:27:16;2.70;;;1.85;;
10715;SDS011;5409;42.620;23.316;2024-02-23T10:29:41;4.82;;;1.33;;
10715;SDS011;5409;42.620;23.316;2024-02-23T10:32:07;1.75;;;1.65;;
10715;SDS011;5409;42.620;23.316;2024-02-23T10:34:36;2.83;;;1.50;;
10715;SDS011;5409;42.620;23.316;2024-02-23T10:37:03;4.13;;;1.70;;
10715;SDS011;5409;42.620;23.316;2024-02-23T10:39:31;3.22;;;1.90;;
10715;SDS011;5409;42.620;23.316;2024-02-23T10:42:02;2.13;;;1.52;;
10715;SDS011;5409;42.620;23.316;2024-02-23T10:44:29;2.45;;;2.25;;
10715;SDS011;5409;42.620;23.316;2024-02-23T10:46:55;1.55;;;1.45;;
10715;SDS011;5409;42.620;23.316;2024-02-23T10:49:21;2.00;;;1.77;;
10715;SDS011;5409;42.620;23.316;2024-02-23T10:51:51;2.92;;;1.60;;
10715;SDS011;5409;42.620;23.316;2024-02-23T10:54:17;2.25;;;1.60;;
10715;SDS011;5409;42.620;23.316;2024-02-23T10:56:46;1.95;;;1.85;;
10715;SDS011;5409;42.620;23.316;2024-02-23T10:59:12;1.42;;;1.33;;
10715;SDS011;5409;42.620;23.316;2024-02-23T11:01:38;2.13;;;1.85;;
10715;SDS011;5409;42.620;23.316;2024-02-23T11:04:05;1.58;;;1.48;;
10715;SDS011;5409;42.620;23.316;2024-02-23T11:06:33;1.73;;;1.63;;
10715;SDS011;5409;42.620;23.316;2024-02-23T11:09:08;2.13;;;2.03;;
10715;SDS011;5409;42.620;23.316;2024-02-23T11:11:38;1.17;;;1.08;;
10715;SDS011;5409;42.620;23.316;2024-02-23T11:14:07;3.20;;;1.23;;
10715;SDS011;5409;42.620;23.316;2024-02-23T11:16:34;2.20;;;2.00;;
10715;SDS011;5409;42.620;23.316;2024-02-23T11:19:04;1.95;;;1.42;;
10715;SDS011;5409;42.620;23.316;2024-02-23T11:21:34;1.77;;;1.58;;
10715;SDS011;5409;42.620;23.316;2024-02-23T11:24:02;1.55;;;1.38;;
10715;SDS011;5409;42.620;23.316;2024-02-23T11:26:31;1.45;;;1.35;;
10715;SDS011;5409;42.620;23.316;2024-02-23T11:28:58;1.48;;;1.38;;
10715;SDS011;5409;42.620;23.316;2024-02-23T11:31:25;1.77;;;1.48;;
10715;SDS011;5409;42.620;23.316;2024-02-23T11:33:54;1.60;;;1.50;;
10715;SDS011;5409;42.620;23.316;2024-02-23T11:36:27;1.55;;;1.45;;
10715;SDS011;5409;42.620;23.316;2024-02-23T11:39:00;2.25;;;1.45;;
10715;SDS011;5409;42.620;23.316;2024-02-23T11:41:26;3.80;;;1.40;;
10715;SDS011;5409;42.620;23.316;2024-02-23T11:43:53;1.52;;;1.42;;
10715;SDS011;5409;42.620;23.316;2024-02-23T11:46:20;1.70;;;1.60;;
10715;SDS011;5409;42.620;23.316;2024-02-23T11:48:46;1.83;;;1.60;;
10715;SDS011;5409;42.620;23.316;2024-02-23T11:51:12;1.70;;;1.58;;
10715;SDS011;5409;42.620;23.316;2024-02-23T11:53:38;2.45;;;1.80;;
10715;SDS011;5409;42.620;23.316;2024-02-23T11:56:04;2.85;;;1.83;;
10715;SDS011;5409;42.620;23.316;2024-02-23T11:58:31;1.88;;;1.50;;
10715;SDS011;5409;42.620;23.316;2024-02-23T12:00:57;1.95;;;1.42;;
10715;SDS011;5409;42.620;23.316;2024-02-23T12:03:23;1.48;;;1.35;;
10715;SDS011;5409;42.620;23.316;2024-02-23T12:05:50;2.20;;;1.73;;
10715;SDS011;5409;42.620;23.316;2024-02-23T12:08:15;1.38;;;1.25;;
10715;SDS011;5409;42.620;23.316;2024-02-23T12:10:42;3.53;;;1.67;;
10715;SDS011;5409;42.620;23.316;2024-02-23T12:13:08;1.77;;;1.27;;
10715;SDS011;5409;42.620;23.316;2024-02-23T12:15:33;2.38;;;2.17;;
10715;SDS011;5409;42.620;23.316;2024-02-23T12:17:59;2.33;;;1.50;;
10715;SDS011;5409;42.620;23.316;2024-02-23T12:20:27;1.73;;;1.35;;
10715;SDS011;5409;42.620;23.316;2024-02-23T12:22:54;1.40;;;1.25;;
10715;SDS011;5409;42.620;23.316;2024-02-23T12:25:20;1.83;;;1.73;;
10715;SDS011;5409;42.620;23.316;2024-02-23T12:27:46;1.40;;;1.17;;
10715;SDS011;5409;42.620;23.316;2024-02-23T12:30:15;1.30;;;1.20;;
10715;SDS011;5409;42.620;23.316;2024-02-23T12:32:42;1.33;;;1.00;;
10715;SDS011;5409;42.620;23.316;2024-02-23T12:35:07;1.30;;;1.20;;
10715;SDS011;5409;42.620;23.316;2024-02-23T12:37:36;1.60;;;1.30;;
10715;SDS011;5409;42.620;23.316;2024-02-23T12:40:02;1.50;;;1.40;;
10715;SDS011;5409;42.620;23.316;2024-02-23T12:42:27;2.25;;;1.42;;
10715;SDS011;5409;42.620;23.316;2024-02-23T12:44:53;1.20;;;1.08;;
10715;SDS011;5409;42.620;23.316;2024-02-23T12:47:18;1.70;;;1.60;;
10715;SDS011;5409;42.620;23.316;2024-02-23T12:49:43;1.38;;;1.27;;
10715;SDS011;5409;42.620;23.316;2024-02-23T12:52:09;2.35;;;1.30;;
10715;SDS011;5409;42.620;23.316;2024-02-23T12:54:35;1.27;;;1.17;;
10715;SDS011;5409;42.620;23.316;2024-02-23T12:57:00;1.65;;;1.55;;
10715;SDS011;5409;42.620;23.316;2024-02-23T12:59:25;1.50;;;1.40;;
10715;SDS011;5409;42.620;23.316;2024-02-23T13:01:51;1.90;;;1.80;;
10715;SDS011;5409;42.620;23.316;2024-02-23T13:04:16;1.30;;;1.20;;
10715;SDS011;5409;42.620;23.316;2024-02-23T13:06:41;1.30;;;1.20;;
10715;SDS011;5409;42.620;23.316;2024-02-23T13:09:07;1.40;;;1.30;;
10715;SDS011;5409;42.620;23.316;2024-02-23T13:11:34;1.60;;;1.50;;
10715;SDS011;5409;42.620;23.316;2024-02-23T13:14:00;2.03;;;1.40;;
10715;SDS011;5409;42.620;23.316;2024-02-23T13:16:25;1.27;;;1.17;;
10715;SDS011;5409;42.620;23.316;2024-02-23T13:18:51;1.33;;;0.93;;
10715;SDS011;5409;42.620;23.316;2024-02-23T13:21:17;1.33;;;1.23;;
10715;SDS011;5409;42.620;23.316;2024-02-23T13:23:43;2.60;;;1.42;;
10715;SDS011;5409;42.620;23.316;2024-02-23T13:26:08;1.77;;;1.67;;
10715;SDS011;5409;42.620;23.316;2024-02-23T13:28:35;1.98;;;1.17;;
10715;SDS011;5409;42.620;23.316;2024-02-23T13:31:01;1.60;;;1.20;;
10715;SDS011;5409;42.620;23.316;2024-02-23T13:33:27;7.35;;;4.28;;
10715;SDS011;5409;42.620;23.316;2024-02-23T13:35:53;4.28;;;2.80;;
10715;SDS011;5409;42.620;23.316;2024-02-23T13:38:20;1.25;;;1.17;;
10715;SDS011;5409;42.620;23.316;2024-02-23T13:40:45;1.15;;;1.05;;
10715;SDS011;5409;42.620;23.316;2024-02-23T13:43:11;1.40;;;1.30;;
10715;SDS011;5409;42.620;23.316;2024-02-23T13:45:47;1.67;;;1.27;;
10715;SDS011;5409;42.620;23.316;2024-02-23T13:48:15;1.17;;;1.08;;
10715;SDS011;5409;42.620;23.316;2024-02-23T13:50:40;1.70;;;1.25;;
10715;SDS011;5409;42.620;23.316;2024-02-23T13:53:05;1.05;;;0.95;;
10715;SDS011;5409;42.620;23.316;2024-02-23T13:55:31;1.23;;;1.00;;
10715;SDS011;5409;42.620;23.316;2024-02-23T13:57:56;1.13;;;1.02;;
10715;SDS011;5409;42.620;23.316;2024-02-23T14:00:21;3.65;;;1.23;;
10715;SDS011;5409;42.620;23.316;2024-02-23T14:02:47;1.83;;;1.20;;
10715;SDS011;5409;42.620;23.316;2024-02-23T14:05:13;1.60;;;1.40;;
10715;SDS011;5409;42.620;23.316;2024-02-23T14:07:38;1.45;;;1.08;;
10715;SDS011;5409;42.620;23.316;2024-02-23T14:10:04;4.03;;;1.10;;
10715;SDS011;5409;42.620;23.316;2024-02-23T14:12:30;1.30;;;1.20;;
10715;SDS011;5409;42.620;23.316;2024-02-23T14:14:55;1.77;;;1.67;;
10715;SDS011;5409;42.620;23.316;2024-02-23T14:17:21;1.38;;;1.27;;
10715;SDS011;5409;42.620;23.316;2024-02-23T14:19:46;1.65;;;1.42;;
10715;SDS011;5409;42.620;23.316;2024-02-23T14:22:12;2.42;;;1.73;;
10715;SDS011;5409;42.620;23.316;2024-02-23T14:24:37;2.33;;;1.30;;
10715;SDS011;5409;42.620;23.316;2024-02-23T14:27:03;1.35;;;1.17;;
10715;SDS011;5409;42.620;23.316;2024-02-23T14:29:28;3.63;;;1.67;;
10715;SDS011;5409;42.620;23.316;2024-02-23T14:31:54;1.25;;;1.15;;
10715;SDS011;5409;42.620;23.316;2024-02-23T14:34:19;2.10;;;1.90;;
10715;SDS011;5409;42.620;23.316;2024-02-23T14:36:48;1.27;;;1.17;;
10715;SDS011;5409;42.620;23.316;2024-02-23T14:39:14;1.20;;;1.00;;